Time;durP1;ratioP1;P1;durP2;ratioP2;P2;SDS_P1;SDS_P2;PMS_P1;PMS_P2;Temp;Humidity;BMP_temperature;BMP_pressure;BME280_temperature;BME280_humidity;BME280_pressure;Samples;Min_cycle;Max_cycle;Signal;HPM_P1;HPM_P2
2023/01/21 00:00:43;;;;;;;13.98;6.97;;;0.00;99.90;;;;;;5033552;28;20044;-62
2023/01/21 00:03:08;;;;;;;18.75;6.95;;;-0.10;99.90;;;;;;5033542;28;20080;-62
2023/01/21 00:05:34;;;;;;;13.57;6.40;;;-0.10;99.90;;;;;;5033345;28;20489;-62
2023/01/21 00:07:59;;;;;;;15.23;7.10;;;0.00;99.90;;;;;;4999064;28;20489;-63
2023/01/21 00:10:25;;;;;;;18.08;7.57;;;0.00;99.90;;;;;;5015446;28;20042;-63
2023/01/21 00:12:51;;;;;;;14.63;6.53;;;0.00;99.90;;;;;;5033360;28;20041;-63
2023/01/21 00:15:16;;;;;;;16.80;7.18;;;0.00;99.90;;;;;;5033287;28;20485;-63
2023/01/21 00:17:42;;;;;;;19.15;7.03;;;0.00;99.90;;;;;;5015304;28;20049;-63
2023/01/21 00:20:09;;;;;;;20.67;7.00;;;-0.10;99.90;;;;;;5033281;28;20037;-62
2023/01/21 00:22:35;;;;;;;18.80;6.60;;;0.00;99.90;;;;;;5032718;28;20038;-63
2023/01/21 00:25:01;;;;;;;19.95;7.68;;;-0.10;99.90;;;;;;5033167;28;20091;-63
2023/01/21 00:27:27;;;;;;;16.35;7.07;;;-0.10;99.90;;;;;;5015528;28;20033;-63
2023/01/21 00:29:52;;;;;;;18.65;7.28;;;0.00;99.90;;;;;;5033121;28;20113;-62
2023/01/21 00:32:18;;;;;;;25.20;7.35;;;0.00;99.90;;;;;;4998857;28;20048;-63
2023/01/21 00:34:44;;;;;;;21.77;6.63;;;0.00;99.90;;;;;;5033055;28;20492;-63
2023/01/21 00:37:10;;;;;;;14.98;5.72;;;0.00;99.90;;;;;;5033077;28;20036;-63
2023/01/21 00:39:35;;;;;;;16.02;7.10;;;0.00;99.90;;;;;;5032979;28;20038;-63
2023/01/21 00:42:03;;;;;;;17.70;7.10;;;0.00;99.90;;;;;;5014948;28;20128;-63
2023/01/21 00:44:29;;;;;;;15.40;7.13;;;0.00;99.90;;;;;;5032960;28;20390;-63
2023/01/21 00:46:55;;;;;;;17.50;6.72;;;0.10;99.90;;;;;;5032918;28;20091;-65
2023/01/21 00:49:20;;;;;;;19.40;8.00;;;0.10;99.90;;;;;;5032938;28;20041;-63
2023/01/21 00:51:46;;;;;;;20.38;7.47;;;0.10;99.90;;;;;;5032757;28;20034;-63
2023/01/21 00:54:11;;;;;;;14.40;6.38;;;0.10;99.90;;;;;;5032952;28;20495;-63
2023/01/21 00:56:37;;;;;;;16.30;6.18;;;0.10;99.90;;;;;;5032918;28;20191;-63
2023/01/21 00:59:02;;;;;;;15.75;6.32;;;0.00;99.90;;;;;;5014915;28;20456;-63
2023/01/21 01:01:33;;;;;;;15.48;6.95;;;0.10;99.90;;;;;;5034406;28;20044;-63
2023/01/21 01:03:59;;;;;;;15.10;6.00;;;0.10;99.90;;;;;;5036831;28;20056;-62
2023/01/21 01:06:24;;;;;;;14.80;5.80;;;0.10;99.90;;;;;;5019047;28;20038;-63
2023/01/21 01:08:50;;;;;;;15.30;6.05;;;0.10;99.90;;;;;;5036760;28;20053;-62
2023/01/21 01:11:17;;;;;;;14.23;6.20;;;0.10;99.90;;;;;;5036832;28;20116;-63
2023/01/21 01:13:43;;;;;;;16.75;6.45;;;0.10;99.90;;;;;;5036458;28;20049;-63
2023/01/21 01:16:12;;;;;;;13.25;5.20;;;0.10;99.90;;;;;;5036436;28;20111;-63
2023/01/21 01:18:37;;;;;;;12.40;5.88;;;0.10;99.90;;;;;;5036559;28;20092;-63
2023/01/21 01:21:04;;;;;;;12.23;5.93;;;0.10;99.90;;;;;;5036649;28;20493;-63
2023/01/21 01:23:31;;;;;;;16.13;5.20;;;0.10;99.90;;;;;;5036238;28;20099;-62
2023/01/21 01:26:03;;;;;;;15.45;6.63;;;0.10;99.90;;;;;;5018519;28;20041;-62
2023/01/21 01:28:30;;;;;;;15.43;5.82;;;0.10;99.90;;;;;;5036147;28;20052;-62
2023/01/21 01:30:56;;;;;;;19.38;6.20;;;0.10;99.90;;;;;;5036409;28;20045;-62
2023/01/21 01:33:23;;;;;;;17.83;6.53;;;0.10;99.90;;;;;;5036090;28;20052;-62
2023/01/21 01:35:49;;;;;;;18.55;7.22;;;0.10;99.90;;;;;;5036246;28;20049;-62
2023/01/21 01:38:15;;;;;;;16.70;5.90;;;0.10;99.90;;;;;;5036015;28;20041;-61
2023/01/21 01:40:42;;;;;;;17.35;7.28;;;0.00;99.90;;;;;;5036177;28;20041;-62
2023/01/21 01:44:05;;;;;;;16.40;7.10;;;0.00;99.90;;;;;;5036109;28;20041;-62
2023/01/21 01:46:34;;;;;;;14.77;6.32;;;0.00;99.90;;;;;;4936465;29;20046;-62
2023/01/21 01:49:12;;;;;;;21.50;7.45;;;0.60;99.90;;;;;;4987219;28;20053;-61
2023/01/21 01:51:47;;;;;;;19.17;7.20;;;0.00;99.90;;;;;;5036026;28;20120;-61
2023/01/21 01:54:17;;;;;;;18.70;7.50;;;-0.10;99.90;;;;;;5035670;28;20052;-62
2023/01/21 01:56:45;;;;;;;15.70;6.80;;;-0.10;99.90;;;;;;5035854;28;20107;-62
2023/01/21 01:59:11;;;;;;;18.85;5.55;;;-0.10;99.90;;;;;;5035614;28;20116;-62
2023/01/21 02:01:37;;;;;;;13.07;5.72;;;-0.10;99.90;;;;;;5035822;28;20128;-62
2023/01/21 02:04:08;;;;;;;14.77;5.30;;;-0.10;99.90;;;;;;5035721;28;20041;-61
2023/01/21 02:06:34;;;;;;;20.80;7.13;;;-0.10;99.90;;;;;;5035554;28;20060;-61
2023/01/21 02:09:00;;;;;;;19.38;7.28;;;-0.20;99.90;;;;;;5035701;28;20084;-62
2023/01/21 02:11:25;;;;;;;17.33;6.63;;;-0.20;99.90;;;;;;5035730;28;20449;-61
2023/01/21 02:13:55;;;;;;;23.42;7.43;;;-0.10;99.90;;;;;;5034448;28;20120;-62
2023/01/21 02:16:30;;;;;;;15.95;7.07;;;-0.20;99.90;;;;;;5035491;28;20126;-62
2023/01/21 02:19:33;;;;;;;15.50;7.38;;;-0.10;99.90;;;;;;5035606;28;20099;-62
2023/01/21 02:22:26;;;;;;;20.20;7.13;;;-0.10;99.90;;;;;;5035425;28;20421;-62
2023/01/21 02:25:36;;;;;;;27.98;7.97;;;-0.10;99.90;;;;;;5035106;28;20132;-61
2023/01/21 02:28:28;;;;;;;16.77;6.65;;;-0.20;99.90;;;;;;5017612;28;20124;-61
2023/01/21 02:31:31;;;;;;;21.23;7.43;;;-0.10;99.90;;;;;;5035260;28;20133;-61
2023/01/21 02:34:18;;;;;;;21.55;7.53;;;-0.20;99.90;;;;;;5035261;28;20552;-62
2023/01/21 02:37:00;;;;;;;19.35;8.10;;;-0.10;99.90;;;;;;5035207;28;20560;-62
2023/01/21 02:39:35;;;;;;;16.83;6.93;;;-0.10;99.90;;;;;;5034930;28;20046;-62
2023/01/21 02:42:10;;;;;;;25.15;8.25;;;-0.10;99.90;;;;;;5035122;28;20044;-61
2023/01/21 02:44:46;;;;;;;20.42;7.20;;;0.00;99.90;;;;;;5034994;28;20037;-62
2023/01/21 02:47:40;;;;;;;20.75;8.20;;;0.00;99.90;;;;;;5000728;28;20037;-62
2023/01/21 02:50:14;;;;;;;22.55;8.02;;;0.00;99.90;;;;;;5011584;28;20044;-62
2023/01/21 02:52:40;;;;;;;16.65;7.38;;;0.00;99.90;;;;;;5016858;28;20041;-62
2023/01/21 02:55:12;;;;;;;25.70;9.23;;;0.00;99.90;;;;;;5034560;28;20090;-62
2023/01/21 02:57:45;;;;;;;19.25;7.60;;;0.00;99.90;;;;;;5034542;28;20088;-62
2023/01/21 03:00:16;;;;;;;19.60;8.75;;;0.00;99.90;;;;;;5016894;28;20041;-62
2023/01/21 03:02:48;;;;;;;21.88;8.00;;;0.10;99.90;;;;;;5034610;28;20443;-65
2023/01/21 03:05:22;;;;;;;;;;;0.10;99.90;;;;;;5035149;28;20049;-65
2023/01/21 03:08:02;;;;;;;17.95;5.78;;;0.10;99.90;;;;;;5033052;28;19925;-65
2023/01/21 03:10:35;;;;;;;20.15;8.00;;;0.10;99.90;;;;;;5034273;28;20121;-65
2023/01/21 03:16:55;;;;;;;19.67;7.97;;;0.10;99.90;;;;;;5034497;28;20045;-65
2023/01/21 03:18:55;;;;;;;18.27;7.60;;;0.10;99.90;;;;;;5034399;28;20046;-65
2023/01/21 03:21:26;;;;;;;16.25;7.07;;;0.10;99.90;;;;;;5034150;28;20048;-66
2023/01/21 03:23:52;;;;;;;;;;;0.10;99.90;;;;;;5034509;28;20046;-66
2023/01/21 03:26:26;;;;;;;20.48;6.43;;;0.00;99.90;;;;;;5034295;28;19917;-65
2023/01/21 03:28:56;;;;;;;16.50;7.18;;;0.10;99.90;;;;;;5034187;28;20045;-66
2023/01/21 03:31:30;;;;;;;15.27;6.07;;;0.00;99.90;;;;;;5034118;28;20124;-66
2023/01/21 03:33:59;;;;;;;16.20;6.72;;;0.10;99.90;;;;;;5016102;28;20413;-66
2023/01/21 03:36:52;;;;;;;19.98;7.03;;;0.10;99.90;;;;;;5034020;28;20034;-65
2023/01/21 03:39:38;;;;;;;15.13;6.40;;;0.20;99.90;;;;;;5034030;28;20496;-65
2023/01/21 03:42:04;;;;;;;15.05;6.57;;;0.10;99.90;;;;;;5033706;28;20038;-66
2023/01/21 03:44:29;;;;;;;14.40;6.00;;;0.10;99.90;;;;;;5016186;28;20049;-65
2023/01/21 03:47:12;;;;;;;17.50;6.72;;;0.10;99.90;;;;;;5033846;28;20389;-64
2023/01/21 03:49:42;;;;;;;18.35;7.97;;;0.10;99.90;;;;;;5033813;28;20083;-64
2023/01/21 03:52:11;;;;;;;19.13;7.37;;;0.00;99.90;;;;;;5016161;28;20041;-66
2023/01/21 03:54:38;;;;;;;22.02;6.78;;;0.10;99.90;;;;;;5033698;28;20049;-65
2023/01/21 03:57:04;;;;;;;15.68;6.85;;;0.00;99.90;;;;;;5033655;28;20042;-65
2023/01/21 03:59:30;;;;;;;17.58;7.22;;;0.00;99.90;;;;;;5033387;28;20400;-65
2023/01/21 04:01:55;;;;;;;14.25;5.78;;;0.00;99.90;;;;;;5033345;28;20041;-65
2023/01/21 04:04:21;;;;;;;22.75;7.45;;;0.10;99.90;;;;;;5015642;28;20099;-66
2023/01/21 04:06:46;;;;;;;19.20;6.90;;;0.00;99.90;;;;;;5033261;28;20418;-66
2023/01/21 04:09:12;;;;;;;17.83;7.57;;;0.10;99.90;;;;;;5033469;28;20091;-66
2023/01/21 04:11:38;;;;;;;19.42;7.38;;;0.10;99.90;;;;;;5033473;28;20068;-66
2023/01/21 04:14:03;;;;;;;14.23;6.32;;;0.10;99.90;;;;;;5033051;28;20543;-64
2023/01/21 04:16:29;;;;;;;15.02;6.07;;;0.10;99.90;;;;;;5033446;28;20041;-65
2023/01/21 04:18:54;;;;;;;18.55;7.90;;;0.10;99.90;;;;;;5033090;28;20046;-66
2023/01/21 04:21:20;;;;;;;21.20;7.43;;;0.10;99.90;;;;;;5033347;28;20033;-66
2023/01/21 04:23:46;;;;;;;14.32;6.47;;;0.10;99.90;;;;;;5033145;28;20473;-66
2023/01/21 04:26:11;;;;;;;19.02;7.53;;;0.20;99.90;;;;;;5033266;28;20033;-65
2023/01/21 04:28:37;;;;;;;15.07;6.95;;;0.10;99.90;;;;;;5033183;28;20113;-66
2023/01/21 04:31:02;;;;;;;19.58;6.50;;;0.20;99.90;;;;;;5033123;28;20504;-66
2023/01/21 04:33:29;;;;;;;13.63;6.03;;;0.10;99.90;;;;;;5015439;28;20455;-66
2023/01/21 04:35:58;;;;;;;20.13;6.40;;;0.20;99.90;;;;;;5032443;28;20033;-66
2023/01/21 04:38:24;;;;;;;17.50;8.02;;;0.20;99.90;;;;;;5015757;28;20069;-66
2023/01/21 04:40:50;;;;;;;20.60;7.68;;;0.20;99.90;;;;;;5015116;28;20065;-65
2023/01/21 04:43:15;;;;;;;17.50;6.18;;;0.20;99.90;;;;;;5032763;28;20563;-66
2023/01/21 04:45:41;;;;;;;17.13;7.28;;;0.20;99.90;;;;;;5032995;28;20042;-65
2023/01/21 04:48:07;;;;;;;16.80;7.50;;;0.30;99.90;;;;;;5032768;28;20037;-65
2023/01/21 04:50:32;;;;;;;20.08;7.32;;;0.20;99.90;;;;;;5015146;28;20040;-65
2023/01/21 04:52:58;;;;;;;15.02;6.32;;;0.20;99.90;;;;;;5032952;28;20048;-66
2023/01/21 04:55:23;;;;;;;15.95;7.20;;;0.20;99.90;;;;;;5015197;28;20374;-66
2023/01/21 04:57:49;;;;;;;21.52;6.07;;;0.30;99.90;;;;;;5032647;28;20120;-65
2023/01/21 05:00:15;;;;;;;14.88;6.13;;;0.40;99.90;;;;;;5032846;28;20045;-66
2023/01/21 05:02:41;;;;;;;19.98;7.32;;;0.30;99.90;;;;;;5032768;28;20439;-66
2023/01/21 05:05:06;;;;;;;19.58;7.20;;;0.30;99.90;;;;;;4998757;28;20042;-66
2023/01/21 05:07:33;;;;;;;19.85;7.30;;;0.40;99.90;;;;;;5032446;28;20104;-66
2023/01/21 05:09:59;;;;;;;17.77;5.95;;;0.40;99.90;;;;;;5032777;28;20144;-66
2023/01/21 05:12:24;;;;;;;16.15;6.93;;;0.40;99.90;;;;;;5032759;28;20069;-65
2023/01/21 05:14:56;;;;;;;23.05;7.78;;;0.40;99.90;;;;;;5032645;28;20041;-65
2023/01/21 05:17:22;;;;;;;18.38;7.05;;;0.40;99.90;;;;;;5032682;28;20084;-66
2023/01/21 05:19:49;;;;;;;14.25;5.97;;;0.50;99.90;;;;;;5032642;28;20053;-66
2023/01/21 05:22:15;;;;;;;17.75;5.90;;;0.40;99.90;;;;;;5014908;28;20048;-66
2023/01/21 05:24:41;;;;;;;20.45;7.65;;;0.50;99.90;;;;;;5032524;28;20037;-65
2023/01/21 05:27:07;;;;;;;18.00;6.50;;;0.40;99.90;;;;;;5032636;28;20389;-66
2023/01/21 05:29:32;;;;;;;16.23;6.07;;;0.40;99.90;;;;;;5014664;28;20042;-65
2023/01/21 05:31:58;;;;;;;19.48;6.85;;;0.40;99.90;;;;;;5014576;28;20037;-65
2023/01/21 05:34:24;;;;;;;21.88;5.97;;;0.50;99.90;;;;;;5032431;28;20572;-65
2023/01/21 05:36:50;;;;;;;17.17;6.25;;;0.50;99.90;;;;;;5032484;28;20076;-65
2023/01/21 05:39:15;;;;;;;12.95;6.07;;;0.50;99.90;;;;;;5032202;28;20065;-66
2023/01/21 05:41:41;;;;;;;22.83;6.88;;;0.50;99.90;;;;;;5032430;28;20088;-65
2023/01/21 05:44:08;;;;;;;17.27;5.90;;;0.60;99.90;;;;;;5032397;28;20477;-66
2023/01/21 05:46:34;;;;;;;22.95;7.18;;;0.60;99.90;;;;;;5014406;28;20046;-66
2023/01/21 05:48:59;;;;;;;16.45;6.55;;;0.60;99.90;;;;;;5034602;28;20041;-66
2023/01/21 05:51:25;;;;;;;18.05;6.05;;;0.60;99.90;;;;;;5018086;28;20382;-65
2023/01/21 05:53:50;;;;;;;23.08;8.25;;;0.60;99.90;;;;;;5036119;28;20068;-65
2023/01/21 05:56:16;;;;;;;15.40;5.95;;;0.60;99.90;;;;;;5036042;28;20041;-64
2023/01/21 05:58:42;;;;;;;14.52;5.85;;;0.60;99.90;;;;;;5035940;28;20041;-65
2023/01/21 06:01:07;;;;;;;16.88;6.72;;;0.60;99.90;;;;;;5035952;28;20091;-65
2023/01/21 06:03:34;;;;;;;15.95;6.50;;;0.60;99.90;;;;;;5035790;28;20065;-64
2023/01/21 06:06:00;;;;;;;18.23;6.75;;;0.60;99.90;;;;;;5017787;28;20049;-64
2023/01/21 06:08:25;;;;;;;14.88;6.75;;;0.60;99.90;;;;;;5035341;28;20476;-65
2023/01/21 06:10:55;;;;;;;15.05;6.80;;;0.60;99.90;;;;;;5035684;28;20038;-64
2023/01/21 06:13:21;;;;;;;20.92;6.63;;;0.60;99.90;;;;;;5017701;28;20076;-64
2023/01/21 06:15:47;;;;;;;15.68;6.40;;;0.60;99.90;;;;;;5035328;28;20042;-64
2023/01/21 06:18:12;;;;;;;17.77;7.63;;;0.60;99.90;;;;;;5035616;28;20041;-64
2023/01/21 06:20:38;;;;;;;18.35;7.00;;;0.60;99.90;;;;;;5035262;28;20053;-64
2023/01/21 06:23:04;;;;;;;18.95;8.55;;;0.60;99.90;;;;;;5035150;28;20500;-64
2023/01/21 06:25:31;;;;;;;16.60;7.60;;;0.60;99.90;;;;;;5035450;28;20037;-64
2023/01/21 06:27:57;;;;;;;56.85;23.00;;;0.60;99.90;;;;;;5035137;28;20396;-64
2023/01/21 06:30:24;;;;;;;18.95;9.90;;;0.50;99.90;;;;;;5035272;28;20422;-64
2023/01/21 06:32:50;;;;;;;46.38;20.10;;;0.50;99.90;;;;;;5035273;28;20076;-64
2023/01/21 06:35:16;;;;;;;18.17;8.43;;;0.50;99.90;;;;;;5035278;28;20077;-64
2023/01/21 06:37:42;;;;;;;27.42;9.20;;;0.50;99.90;;;;;;5035159;28;20047;-64
2023/01/21 06:40:09;;;;;;;22.13;8.95;;;0.50;99.90;;;;;;5035131;28;20132;-64
2023/01/21 06:42:34;;;;;;;17.95;7.38;;;0.50;99.90;;;;;;5035081;28;20037;-64
2023/01/21 06:45:00;;;;;;;20.42;8.05;;;0.50;99.90;;;;;;5035085;28;20045;-64
2023/01/21 06:47:26;;;;;;;26.83;8.65;;;0.50;99.90;;;;;;5000703;28;20049;-64
2023/01/21 06:49:51;;;;;;;24.27;8.95;;;0.50;99.90;;;;;;5034969;28;20048;-64
2023/01/21 06:52:17;;;;;;;15.23;7.15;;;0.50;99.90;;;;;;5034718;28;20029;-63
2023/01/21 06:54:43;;;;;;;23.42;10.45;;;0.50;99.90;;;;;;5016850;28;20084;-64
2023/01/21 06:57:09;;;;;;;34.47;13.80;;;0.50;99.90;;;;;;5034805;28;20045;-64
2023/01/21 06:59:34;;;;;;;25.33;11.63;;;0.50;99.90;;;;;;5034430;28;20401;-64
2023/01/21 07:02:00;;;;;;;59.03;27.45;;;0.50;99.90;;;;;;5034443;28;20040;-64
2023/01/21 07:04:26;;;;;;;34.15;16.23;;;0.50;99.90;;;;;;5034655;28;20038;-64
2023/01/21 07:06:52;;;;;;;21.40;10.98;;;0.50;99.90;;;;;;5034501;28;20076;-64
2023/01/21 07:09:18;;;;;;;23.92;9.27;;;0.50;99.90;;;;;;5016614;28;20126;-64
2023/01/21 07:11:44;;;;;;;19.38;7.88;;;0.50;99.90;;;;;;5034490;28;20511;-64
2023/01/21 07:14:09;;;;;;;23.17;8.00;;;0.40;99.90;;;;;;5034523;28;20068;-63
2023/01/21 07:16:35;;;;;;;20.33;8.05;;;0.50;99.90;;;;;;5034159;28;20041;-64
2023/01/21 07:19:01;;;;;;;19.20;8.15;;;0.40;99.90;;;;;;5034117;28;20044;-64
2023/01/21 07:21:26;;;;;;;19.75;6.95;;;0.40;99.90;;;;;;5034374;28;20040;-64
2023/01/21 07:23:53;;;;;;;21.83;8.35;;;0.40;99.90;;;;;;5033997;28;20046;-64
2023/01/21 07:26:18;;;;;;;18.13;7.57;;;0.40;99.90;;;;;;5034345;28;20130;-64
2023/01/21 07:28:44;;;;;;;16.23;6.25;;;0.30;99.90;;;;;;5033909;28;20065;-64
2023/01/21 07:31:10;;;;;;;22.08;8.00;;;0.30;99.90;;;;;;5033892;28;20041;-65
2023/01/21 07:33:36;;;;;;;16.40;6.22;;;0.30;99.90;;;;;;5034125;28;20124;-64
2023/01/21 07:36:01;;;;;;;17.85;6.20;;;0.30;99.90;;;;;;5034114;28;20124;-65
2023/01/21 07:38:27;;;;;;;28.30;10.57;;;0.50;99.90;;;;;;5034038;28;20033;-65
2023/01/21 07:40:53;;;;;;;18.77;6.88;;;0.20;99.90;;;;;;5033966;28;20048;-65
2023/01/21 07:43:18;;;;;;;24.38;9.00;;;0.20;99.90;;;;;;5033589;28;20144;-65
2023/01/21 07:45:44;;;;;;;60.70;43.85;;;0.20;99.90;;;;;;5015904;28;20510;-65
2023/01/21 07:48:10;;;;;;;33.33;13.45;;;0.30;99.90;;;;;;5015835;28;20042;-64
2023/01/21 07:50:36;;;;;;;15.77;7.50;;;0.30;99.90;;;;;;5033856;28;20037;-67
2023/01/21 07:53:02;;;;;;;16.77;6.15;;;0.30;99.90;;;;;;5033573;28;20078;-64
2023/01/21 07:55:28;;;;;;;20.75;7.53;;;0.40;99.90;;;;;;5033741;28;20124;-65
2023/01/21 07:57:58;;;;;;;21.83;8.18;;;0.30;99.90;;;;;;5033673;28;20045;-65
2023/01/21 08:00:25;;;;;;;20.20;7.70;;;0.40;99.90;;;;;;5015861;28;20033;-65
2023/01/21 08:02:53;;;;;;;22.27;7.22;;;0.30;99.90;;;;;;5015452;28;20053;-65
2023/01/21 08:05:20;;;;;;;16.73;6.82;;;0.40;99.90;;;;;;5033245;28;20050;-65
2023/01/21 08:07:45;;;;;;;16.55;7.57;;;0.40;99.90;;;;;;5033058;28;20050;-65
2023/01/21 08:10:11;;;;;;;19.20;7.07;;;0.40;99.90;;;;;;5032729;28;20370;-65
2023/01/21 08:12:39;;;;;;;21.42;6.97;;;0.40;99.90;;;;;;5033037;28;20060;-65
2023/01/21 08:15:05;;;;;;;18.67;6.93;;;0.40;99.90;;;;;;5033271;28;20044;-64
2023/01/21 08:17:31;;;;;;;15.00;6.63;;;0.40;99.90;;;;;;5033304;28;20413;-65
2023/01/21 08:19:56;;;;;;;19.15;7.70;;;0.50;99.90;;;;;;5033302;28;20036;-65
2023/01/21 08:22:22;;;;;;;16.85;7.25;;;0.50;99.90;;;;;;5015320;28;20484;-65
2023/01/21 08:24:47;;;;;;;25.10;8.68;;;0.50;99.90;;;;;;5032904;28;20041;-65
2023/01/21 08:27:13;;;;;;;36.10;23.17;;;0.50;99.90;;;;;;5015196;28;20095;-64
2023/01/21 08:29:38;;;;;;;21.58;8.27;;;0.50;99.90;;;;;;5015520;28;20132;-64
2023/01/21 08:32:04;;;;;;;18.50;8.35;;;0.50;99.90;;;;;;5032889;28;20068;-65
2023/01/21 08:34:30;;;;;;;18.83;8.25;;;0.50;99.90;;;;;;5033130;28;20103;-65
2023/01/21 08:36:55;;;;;;;19.20;8.07;;;0.50;99.90;;;;;;5033107;28;20561;-64
2023/01/21 08:39:21;;;;;;;15.43;6.55;;;0.60;99.90;;;;;;5033137;28;20400;-65
2023/01/21 08:41:47;;;;;;;17.60;7.43;;;0.60;99.90;;;;;;5015131;28;20045;-65
2023/01/21 08:44:12;;;;;;;20.83;8.30;;;0.60;99.90;;;;;;5032913;28;20037;-64
2023/01/21 08:46:38;;;;;;;20.70;9.20;;;0.60;99.90;;;;;;5033014;28;20531;-66
2023/01/21 08:49:04;;;;;;;19.80;7.72;;;0.60;99.90;;;;;;5032969;28;20381;-65
2023/01/21 08:51:29;;;;;;;15.88;7.35;;;0.60;99.90;;;;;;5032899;28;20040;-66
2023/01/21 08:53:55;;;;;;;16.52;7.97;;;0.70;99.90;;;;;;5032555;28;20052;-65
2023/01/21 08:56:20;;;;;;;17.42;6.75;;;0.70;99.90;;;;;;5032889;28;20041;-66
2023/01/21 08:58:46;;;;;;;22.02;9.52;;;0.70;99.90;;;;;;5032582;28;20076;-66
2023/01/21 09:01:16;;;;;;;17.10;7.70;;;0.80;99.90;;;;;;5032843;28;20042;-66
2023/01/21 09:03:42;;;;;;;20.25;8.35;;;0.80;99.90;;;;;;5032627;28;20443;-66
2023/01/21 09:06:07;;;;;;;21.23;8.23;;;0.80;99.90;;;;;;5032904;28;20188;-65
2023/01/21 09:08:35;;;;;;;19.75;7.68;;;0.80;99.90;;;;;;5032298;28;20068;-66
2023/01/21 09:11:02;;;;;;;18.42;7.63;;;0.80;99.90;;;;;;5032701;28;20045;-65
2023/01/21 09:13:34;;;;;;;23.45;8.23;;;0.80;99.90;;;;;;5015110;28;20053;-66
2023/01/21 09:16:00;;;;;;;19.33;7.45;;;0.80;99.90;;;;;;5032656;28;20049;-65
2023/01/21 09:18:26;;;;;;;15.95;6.97;;;0.80;99.90;;;;;;5032362;28;20045;-66
2023/01/21 09:20:52;;;;;;;18.98;7.53;;;0.80;99.90;;;;;;5032386;28;20381;-66
2023/01/21 09:23:24;;;;;;;20.33;8.07;;;0.90;99.90;;;;;;5035217;28;20080;-68
2023/01/21 09:25:51;;;;;;;20.33;7.68;;;0.90;99.90;;;;;;5018803;28;20075;-66
2023/01/21 09:28:18;;;;;;;23.50;8.57;;;0.90;99.90;;;;;;5036528;28;20037;-66
2023/01/21 09:30:44;;;;;;;19.77;7.13;;;0.90;99.90;;;;;;5036435;28;20037;-66
2023/01/21 09:33:10;;;;;;;23.90;8.35;;;0.90;99.90;;;;;;5036436;28;20055;-66
2023/01/21 09:35:36;;;;;;;23.08;7.82;;;1.00;99.90;;;;;;5036377;28;20038;-67
2023/01/21 09:38:01;;;;;;;19.40;7.20;;;1.00;99.90;;;;;;5036096;28;20607;-66
2023/01/21 09:40:27;;;;;;;19.52;8.05;;;1.00;99.90;;;;;;5036273;28;20445;-67
2023/01/21 09:42:52;;;;;;;20.73;8.27;;;1.10;99.90;;;;;;5036083;28;20090;-66
2023/01/21 09:45:19;;;;;;;15.63;6.97;;;1.10;99.90;;;;;;5036161;28;20519;-67
2023/01/21 09:47:47;;;;;;;15.35;7.15;;;1.00;99.90;;;;;;5017978;28;20049;-66
2023/01/21 09:50:19;;;;;;;18.67;7.47;;;1.00;99.90;;;;;;5036069;28;20108;-67
2023/01/21 09:52:48;;;;;;;24.42;7.35;;;1.00;99.90;;;;;;5036054;28;20378;-67
2023/01/21 09:55:32;;;;;;;22.45;8.32;;;1.00;99.90;;;;;;5035810;28;20029;-67
2023/01/21 09:58:09;;;;;;;17.58;7.47;;;1.00;99.90;;;;;;5017988;28;20041;-66
2023/01/21 10:00:53;;;;;;;17.73;7.22;;;1.10;99.90;;;;;;5035626;28;20037;-67
2023/01/21 10:03:46;;;;;;;13.70;6.57;;;1.10;99.90;;;;;;5017952;28;20103;-67
2023/01/21 10:06:24;;;;;;;17.55;6.93;;;1.10;99.90;;;;;;5035670;28;20053;-66
2023/01/21 10:09:21;;;;;;;21.30;6.97;;;1.20;99.90;;;;;;5035737;28;20037;-67
2023/01/21 10:11:58;;;;;;;23.60;8.20;;;1.20;99.90;;;;;;5017760;28;20033;-66
2023/01/21 10:14:41;;;;;;;21.30;8.27;;;1.10;99.90;;;;;;5035463;28;20045;-67
2023/01/21 10:17:16;;;;;;;20.15;7.35;;;1.10;99.90;;;;;;5035679;28;20405;-67
2023/01/21 10:19:53;;;;;;;18.02;7.53;;;1.20;99.90;;;;;;5035503;28;20049;-67
2023/01/21 10:22:27;;;;;;;17.70;7.38;;;1.20;99.90;;;;;;5035514;28;20523;-66
2023/01/21 10:25:05;;;;;;;24.70;8.45;;;1.50;99.90;;;;;;5017527;28;20041;-66
2023/01/21 10:27:34;;;;;;;16.90;7.45;;;1.60;99.90;;;;;;5035287;28;20111;-67
2023/01/21 10:30:08;;;;;;;17.67;6.97;;;1.60;99.90;;;;;;5035351;28;20038;-67
2023/01/21 10:32:37;;;;;;;17.38;7.82;;;1.40;99.90;;;;;;5016847;28;20041;-67
2023/01/21 10:35:17;;;;;;;22.17;7.55;;;1.40;99.90;;;;;;5034518;28;20041;-67
2023/01/21 10:38:00;;;;;;;24.65;8.65;;;1.50;99.90;;;;;;5034927;28;20041;-66
2023/01/21 10:40:43;;;;;;;18.02;6.63;;;1.70;99.90;;;;;;5035242;28;20046;-66
2023/01/21 10:43:32;;;;;;;19.17;8.43;;;1.30;99.90;;;;;;5035061;28;20041;-66
2023/01/21 10:46:22;;;;;;;18.92;8.40;;;1.30;99.90;;;;;;5026636;28;20072;-66
2023/01/21 10:49:19;;;;;;;20.35;7.70;;;1.80;99.90;;;;;;5034711;28;20037;-66
2023/01/21 10:51:51;;;;;;;23.20;9.02;;;1.30;99.90;;;;;;5034635;28;20099;-66
2023/01/21 10:54:24;;;;;;;17.48;7.25;;;1.60;99.90;;;;;;5034885;28;20376;-65
2023/01/21 10:57:05;;;;;;;23.17;8.52;;;1.70;99.90;;;;;;5000440;28;20037;-66
2023/01/21 10:59:34;;;;;;;22.10;8.80;;;1.90;99.90;;;;;;5034929;28;20450;-65
2023/01/21 11:02:18;;;;;;;16.58;8.10;;;1.90;99.90;;;;;;5034764;28;20543;-66
2023/01/21 11:04:44;;;;;;;25.05;8.38;;;2.10;99.90;;;;;;5034315;28;20114;-66
2023/01/21 11:07:13;;;;;;;22.92;7.90;;;1.80;99.90;;;;;;5034356;28;20053;-66
2023/01/21 11:09:41;;;;;;;19.08;8.00;;;;;;;;;;5034585;28;20045;-66
2023/01/21 11:12:16;;;;;;;14.35;7.35;;;2.00;99.90;;;;;;5034252;28;20041;-67
2023/01/21 11:14:46;;;;;;;15.05;6.85;;;2.20;99.90;;;;;;5016743;28;20057;-67
2023/01/21 11:17:12;;;;;;;21.90;7.25;;;2.40;99.90;;;;;;5034531;28;20044;-66
2023/01/21 11:19:37;;;;;;;15.93;7.63;;;3.10;99.90;;;;;;5034436;28;20478;-66
2023/01/21 11:22:15;;;;;;;19.63;7.50;;;2.50;99.90;;;;;;5016413;28;20045;-66
2023/01/21 11:24:45;;;;;;;15.48;7.22;;;2.50;99.90;;;;;;5034244;28;20041;-67
2023/01/21 11:27:30;;;;;;;16.80;7.45;;;2.60;99.90;;;;;;5034351;28;20396;-67
2023/01/21 11:29:56;;;;;;;19.20;8.30;;;2.70;99.90;;;;;;5034258;28;20077;-67
2023/01/21 11:32:24;;;;;;;17.35;6.93;;;2.80;99.90;;;;;;5034227;28;20501;-67
2023/01/21 11:35:18;;;;;;;18.27;8.25;;;2.90;99.90;;;;;;5034152;28;20056;-67
2023/01/21 11:37:45;;;;;;;24.73;8.55;;;3.00;99.90;;;;;;5034114;28;20045;-67
2023/01/21 11:40:17;;;;;;;16.13;7.97;;;3.10;99.90;;;;;;5015992;28;20045;-68
2023/01/21 11:42:48;;;;;;;17.70;7.20;;;3.20;99.90;;;;;;5016029;28;20041;-67
2023/01/21 11:45:30;;;;;;;17.23;7.75;;;3.30;99.90;;;;;;5034082;28;20101;-67
2023/01/21 11:47:56;;;;;;;20.00;8.70;;;3.30;99.90;;;;;;5033899;28;20045;-67
2023/01/21 11:50:25;;;;;;;20.10;7.43;;;3.30;99.90;;;;;;5033880;28;20044;-67
2023/01/21 11:53:06;;;;;;;15.35;7.47;;;3.30;99.90;;;;;;5033896;28;20120;-67
2023/01/21 11:55:36;;;;;;;;;;;3.30;99.90;;;;;;5033898;28;20040;-66
2023/01/21 11:58:02;;;;;;;17.05;6.93;;;3.40;99.90;;;;;;5033446;28;19917;-67
2023/01/21 12:00:30;;;;;;;22.05;7.95;;;3.40;99.90;;;;;;5033748;28;20049;-67
2023/01/21 12:03:00;;;;;;;17.55;7.88;;;3.50;99.90;;;;;;5016268;28;20088;-66
2023/01/21 12:05:30;;;;;;;19.85;8.02;;;3.50;99.90;;;;;;5015630;28;20042;-66
2023/01/21 12:07:56;;;;;;;16.33;7.03;;;3.60;99.90;;;;;;5015445;28;20096;-66
2023/01/21 12:10:35;;;;;;;12.23;6.43;;;3.60;99.90;;;;;;5033256;28;20566;-66
2023/01/21 12:13:28;;;;;;;13.73;7.50;;;3.70;99.90;;;;;;5033383;28;20045;-66
2023/01/21 12:16:21;;;;;;;15.45;7.25;;;3.70;99.90;;;;;;5033162;28;20041;-66
2023/01/21 12:19:05;;;;;;;15.90;6.93;;;3.70;99.90;;;;;;5033329;28;20088;-65
2023/01/21 12:21:52;;;;;;;15.77;6.60;;;3.70;99.90;;;;;;5033229;28;20042;-66
2023/01/21 12:24:38;;;;;;;16.42;7.05;;;3.80;99.90;;;;;;5033211;28;20089;-65
2023/01/21 12:27:30;;;;;;;15.50;6.63;;;3.70;99.90;;;;;;5015245;28;20124;-63
2023/01/21 12:30:05;;;;;;;;;;;3.80;99.90;;;;;;5033256;28;20432;-65
2023/01/21 12:32:39;;;;;;;15.00;6.68;;;4.00;99.90;;;;;;5032699;28;19917;-65
2023/01/21 12:35:14;;;;;;;16.60;6.57;;;4.30;99.90;;;;;;5032716;28;20049;-65
2023/01/21 12:37:45;;;;;;;12.18;5.63;;;4.50;99.90;;;;;;5015335;28;20041;-65
2023/01/21 12:40:20;;;;;;;15.07;5.97;;;4.60;99.90;;;;;;5015128;28;20037;-65
2023/01/21 12:42:52;;;;;;;12.25;5.40;;;4.80;99.90;;;;;;5032618;28;20037;-65
2023/01/21 12:45:25;;;;;;;12.30;5.72;;;4.80;99.90;;;;;;4998949;28;20052;-65
2023/01/21 12:48:05;;;;;;;10.18;4.68;;;4.80;99.90;;;;;;5032907;28;20088;-66
2023/01/21 12:50:40;;;;;;;10.05;4.55;;;4.90;99.90;;;;;;5015159;28;20081;-66
2023/01/21 12:53:08;;;;;;;9.27;4.80;;;4.90;99.90;;;;;;5032780;28;20033;-66
2023/01/21 12:56:06;;;;;;;11.68;4.65;;;4.80;99.90;;;;;;5032875;28;20132;-65
2023/01/21 12:58:37;;;;;;;12.80;5.20;;;4.70;99.90;;;;;;5032456;28;20114;-65
2023/01/21 13:01:12;;;;;;;10.05;5.15;;;4.50;99.90;;;;;;5014840;28;20045;-65
2023/01/21 13:03:58;;;;;;;10.70;5.10;;;4.50;99.90;;;;;;5032228;28;20041;-65
2023/01/21 13:06:43;;;;;;;8.68;3.80;;;4.50;99.90;;;;;;5032595;28;20050;-65